Ana Sayfa
METAR-TAF:

METAR-TAF

Havaalanları :

Mitiga International Airport

Trablus, Libya

Enlem: 32-54N, Boylam: 13-17E, yükseklik: 11 m

METAR: eksik

Saat: 08:46 (06:46 UTC)

Tahmin

Rapor saat 05:00 UTC de 25 saat ve 46 dakika önce yapıldı.
Ayın 22'si saat 06 UTC'den ayın 23'si saat 06 UTC'ye kadar geçerli Tahmin
Rüzgar doğu/güneydoğudan 10 kt
Görüş mesafesi 10 km veya daha fazla
1500 m altında bulut yok ve kümülonimbus yok
Dönüşüyor
ayın 22'si saat 10 UTC'den ayın 22'si saat 12 UTC'ye kadar
Rüzgar doğu/kuzeydoğudan 15 kt
Olasılık 40%
ayın 22'si saat 12 UTC'den ayın 22'si saat 16 UTC'ye kadar
Rüzgar doğu/kuzeydoğudan 15 kt ve 25 kt'a kadar ani rüzgarlar
Görüş mesafesi: 5000 m
Savrulan kum
Dönüşüyor
ayın 22'si saat 22 UTC'den ayın 22'si saat 24 UTC'ye kadar
Rüzgar güney/güneydoğudan 12 kt

TAF: HLLM 220500Z 2206/2306 12010KT CAVOK BECMG 2210/2212 06015KT PROB40 2212/2216 06015G25KT 5000 BLSA NSC BECMG 2222/2224 16012KT

4.000'den fazla havaalanı için hava durumu gözlemleri ve tahminleri (METAR ve TAF raporları).

Kullanılabilir istasyonlar harita üzerinde sarı ve kırmızı noktalarla gösterilir.

İstasyonun adını görmek için fareyi noktanın üzerinde gezdirin.

Sonrasında hava gözlem ve tahminlerini görmek için tıklayın.

Haritayı değiştirmek için: yaklaştırmak için siyah artı işaretli yeşil düğmeye ve uzaklaştırmak için de eksi işaretli düğmeye hızla tıklayın; bitişik haritalar için yeşil okları kullanın.


METAR-TAF: